sensor_id;sensor_type;location;lat;lon;timestamp;P1;durP1;ratioP1;P2;durP2;ratioP2
8450;SDS011;4262;50.980;13.892;2023-02-12T06:00:50;73.43;;;31.40;;
8450;SDS011;4262;50.980;13.892;2023-02-12T06:03:16;65.50;;;28.20;;
8450;SDS011;4262;50.980;13.892;2023-02-12T06:05:45;60.50;;;27.60;;
8450;SDS011;4262;50.980;13.892;2023-02-12T06:08:15;65.73;;;28.37;;
8450;SDS011;4262;50.980;13.892;2023-02-12T06:10:44;69.30;;;28.60;;
8450;SDS011;4262;50.980;13.892;2023-02-12T06:13:10;68.60;;;30.77;;
8450;SDS011;4262;50.980;13.892;2023-02-12T06:15:37;75.80;;;31.20;;
8450;SDS011;4262;50.980;13.892;2023-02-12T06:18:05;74.53;;;31.43;;
8450;SDS011;4262;50.980;13.892;2023-02-12T06:20:32;57.73;;;24.90;;
8450;SDS011;4262;50.980;13.892;2023-02-12T06:22:59;60.13;;;27.37;;
8450;SDS011;4262;50.980;13.892;2023-02-12T06:25:27;62.00;;;28.40;;
8450;SDS011;4262;50.980;13.892;2023-02-12T06:27:54;57.30;;;26.67;;
8450;SDS011;4262;50.980;13.892;2023-02-12T06:30:20;53.80;;;24.60;;
8450;SDS011;4262;50.980;13.892;2023-02-12T06:32:48;51.13;;;24.00;;
8450;SDS011;4262;50.980;13.892;2023-02-12T06:35:16;43.00;;;20.83;;
8450;SDS011;4262;50.980;13.892;2023-02-12T06:37:43;52.47;;;24.40;;
8450;SDS011;4262;50.980;13.892;2023-02-12T06:40:11;52.10;;;24.30;;
8450;SDS011;4262;50.980;13.892;2023-02-12T06:42:38;46.30;;;22.70;;
8450;SDS011;4262;50.980;13.892;2023-02-12T06:45:05;40.97;;;21.63;;
8450;SDS011;4262;50.980;13.892;2023-02-12T06:47:32;45.07;;;24.30;;
8450;SDS011;4262;50.980;13.892;2023-02-12T06:49:59;44.70;;;22.43;;
8450;SDS011;4262;50.980;13.892;2023-02-12T06:52:27;48.73;;;24.00;;
8450;SDS011;4262;50.980;13.892;2023-02-12T06:54:54;51.40;;;24.17;;
8450;SDS011;4262;50.980;13.892;2023-02-12T06:57:20;46.27;;;21.70;;
8450;SDS011;4262;50.980;13.892;2023-02-12T06:59:47;45.73;;;24.73;;
8450;SDS011;4262;50.980;13.892;2023-02-12T07:02:14;45.20;;;22.53;;
8450;SDS011;4262;50.980;13.892;2023-02-12T07:04:41;47.87;;;24.07;;
8450;SDS011;4262;50.980;13.892;2023-02-12T07:07:07;58.20;;;22.80;;
8450;SDS011;4262;50.980;13.892;2023-02-12T07:09:35;53.30;;;24.87;;
8450;SDS011;4262;50.980;13.892;2023-02-12T07:12:02;50.00;;;23.20;;
8450;SDS011;4262;50.980;13.892;2023-02-12T07:14:29;57.43;;;24.10;;
8450;SDS011;4262;50.980;13.892;2023-02-12T07:16:56;51.80;;;20.20;;
8450;SDS011;4262;50.980;13.892;2023-02-12T07:19:23;50.67;;;23.10;;
8450;SDS011;4262;50.980;13.892;2023-02-12T07:21:49;349.97;;;158.80;;
8450;SDS011;4262;50.980;13.892;2023-02-12T07:24:16;233.57;;;107.87;;
8450;SDS011;4262;50.980;13.892;2023-02-12T07:26:44;273.90;;;128.40;;
8450;SDS011;4262;50.980;13.892;2023-02-12T07:29:11;132.17;;;55.30;;
8450;SDS011;4262;50.980;13.892;2023-02-12T07:31:38;138.40;;;62.10;;
8450;SDS011;4262;50.980;13.892;2023-02-12T07:34:05;94.77;;;40.67;;
8450;SDS011;4262;50.980;13.892;2023-02-12T07:36:34;65.97;;;32.17;;
8450;SDS011;4262;50.980;13.892;2023-02-12T07:39:01;75.77;;;30.80;;
8450;SDS011;4262;50.980;13.892;2023-02-12T07:41:30;65.60;;;31.00;;
8450;SDS011;4262;50.980;13.892;2023-02-12T07:44:01;68.17;;;29.80;;
8450;SDS011;4262;50.980;13.892;2023-02-12T07:46:33;71.73;;;32.47;;
8450;SDS011;4262;50.980;13.892;2023-02-12T07:49:02;72.03;;;31.07;;
8450;SDS011;4262;50.980;13.892;2023-02-12T07:51:30;63.17;;;30.37;;
8450;SDS011;4262;50.980;13.892;2023-02-12T07:53:58;64.57;;;28.90;;
8450;SDS011;4262;50.980;13.892;2023-02-12T07:56:28;58.30;;;27.97;;
8450;SDS011;4262;50.980;13.892;2023-02-12T07:58:57;54.37;;;25.57;;
8450;SDS011;4262;50.980;13.892;2023-02-12T08:01:27;57.77;;;28.30;;
8450;SDS011;4262;50.980;13.892;2023-02-12T08:03:56;61.77;;;27.90;;
8450;SDS011;4262;50.980;13.892;2023-02-12T08:06:26;59.73;;;26.80;;
8450;SDS011;4262;50.980;13.892;2023-02-12T08:08:55;67.13;;;29.57;;
8450;SDS011;4262;50.980;13.892;2023-02-12T08:11:27;76.70;;;34.30;;
8450;SDS011;4262;50.980;13.892;2023-02-12T08:13:55;73.47;;;32.90;;
8450;SDS011;4262;50.980;13.892;2023-02-12T08:16:23;83.13;;;36.67;;
8450;SDS011;4262;50.980;13.892;2023-02-12T08:18:54;96.67;;;37.67;;
8450;SDS011;4262;50.980;13.892;2023-02-12T08:21:22;89.97;;;40.00;;
8450;SDS011;4262;50.980;13.892;2023-02-12T08:23:50;82.50;;;37.47;;
8450;SDS011;4262;50.980;13.892;2023-02-12T08:26:21;96.30;;;38.90;;
8450;SDS011;4262;50.980;13.892;2023-02-12T08:28:49;83.03;;;39.30;;
8450;SDS011;4262;50.980;13.892;2023-02-12T08:31:18;89.83;;;38.20;;
8450;SDS011;4262;50.980;13.892;2023-02-12T08:33:47;82.77;;;35.20;;
8450;SDS011;4262;50.980;13.892;2023-02-12T08:36:18;77.80;;;35.33;;
8450;SDS011;4262;50.980;13.892;2023-02-12T08:38:47;68.50;;;32.20;;
8450;SDS011;4262;50.980;13.892;2023-02-12T08:41:16;74.20;;;35.40;;
8450;SDS011;4262;50.980;13.892;2023-02-12T08:43:44;54.53;;;26.27;;
8450;SDS011;4262;50.980;13.892;2023-02-12T08:46:13;41.10;;;19.33;;
8450;SDS011;4262;50.980;13.892;2023-02-12T08:48:41;37.37;;;18.50;;
8450;SDS011;4262;50.980;13.892;2023-02-12T08:51:09;41.63;;;20.50;;
8450;SDS011;4262;50.980;13.892;2023-02-12T08:53:39;44.97;;;22.03;;
8450;SDS011;4262;50.980;13.892;2023-02-12T08:56:09;57.37;;;24.17;;
8450;SDS011;4262;50.980;13.892;2023-02-12T08:58:37;69.73;;;31.00;;
8450;SDS011;4262;50.980;13.892;2023-02-12T09:01:04;69.63;;;30.83;;
8450;SDS011;4262;50.980;13.892;2023-02-12T09:03:35;68.73;;;30.77;;
8450;SDS011;4262;50.980;13.892;2023-02-12T09:06:02;67.90;;;33.13;;
8450;SDS011;4262;50.980;13.892;2023-02-12T09:08:31;64.90;;;30.63;;
8450;SDS011;4262;50.980;13.892;2023-02-12T09:11:04;78.90;;;31.73;;
8450;SDS011;4262;50.980;13.892;2023-02-12T09:13:32;67.47;;;31.77;;
8450;SDS011;4262;50.980;13.892;2023-02-12T09:15:59;65.87;;;32.37;;
8450;SDS011;4262;50.980;13.892;2023-02-12T09:18:29;59.13;;;29.50;;
8450;SDS011;4262;50.980;13.892;2023-02-12T09:21:00;65.17;;;30.17;;
8450;SDS011;4262;50.980;13.892;2023-02-12T09:23:28;78.77;;;32.87;;
8450;SDS011;4262;50.980;13.892;2023-02-12T09:25:55;62.97;;;30.77;;
8450;SDS011;4262;50.980;13.892;2023-02-12T09:28:24;66.80;;;30.57;;
8450;SDS011;4262;50.980;13.892;2023-02-12T09:30:51;65.80;;;32.30;;
8450;SDS011;4262;50.980;13.892;2023-02-12T09:33:18;65.33;;;31.90;;
8450;SDS011;4262;50.980;13.892;2023-02-12T09:35:47;72.30;;;32.23;;
8450;SDS011;4262;50.980;13.892;2023-02-12T09:38:15;60.20;;;30.50;;
8450;SDS011;4262;50.980;13.892;2023-02-12T09:40:49;68.00;;;29.93;;
8450;SDS011;4262;50.980;13.892;2023-02-12T09:43:36;67.23;;;28.90;;
8450;SDS011;4262;50.980;13.892;2023-02-12T09:46:09;59.70;;;28.00;;
8450;SDS011;4262;50.980;13.892;2023-02-12T09:48:47;66.27;;;29.27;;
8450;SDS011;4262;50.980;13.892;2023-02-12T09:51:21;62.60;;;29.10;;
8450;SDS011;4262;50.980;13.892;2023-02-12T09:53:59;60.87;;;28.63;;
8450;SDS011;4262;50.980;13.892;2023-02-12T09:56:30;59.47;;;28.70;;
8450;SDS011;4262;50.980;13.892;2023-02-12T09:59:03;71.73;;;31.00;;
8450;SDS011;4262;50.980;13.892;2023-02-12T10:01:31;61.83;;;29.80;;
8450;SDS011;4262;50.980;13.892;2023-02-12T10:03:59;65.43;;;30.00;;
8450;SDS011;4262;50.980;13.892;2023-02-12T10:06:28;61.70;;;30.53;;
8450;SDS011;4262;50.980;13.892;2023-02-12T10:09:00;64.37;;;29.00;;
8450;SDS011;4262;50.980;13.892;2023-02-12T10:11:44;57.27;;;28.77;;
8450;SDS011;4262;50.980;13.892;2023-02-12T10:14:24;58.33;;;27.27;;
8450;SDS011;4262;50.980;13.892;2023-02-12T10:17:07;57.40;;;25.17;;
8450;SDS011;4262;50.980;13.892;2023-02-12T10:19:47;54.90;;;28.10;;
8450;SDS011;4262;50.980;13.892;2023-02-12T10:22:27;66.30;;;29.00;;
8450;SDS011;4262;50.980;13.892;2023-02-12T10:25:06;56.87;;;28.57;;
8450;SDS011;4262;50.980;13.892;2023-02-12T10:27:45;55.67;;;27.00;;
8450;SDS011;4262;50.980;13.892;2023-02-12T10:30:17;53.17;;;28.77;;
8450;SDS011;4262;50.980;13.892;2023-02-12T10:32:47;54.93;;;25.33;;
8450;SDS011;4262;50.980;13.892;2023-02-12T10:35:18;63.27;;;29.53;;
8450;SDS011;4262;50.980;13.892;2023-02-12T10:37:50;64.43;;;31.60;;
8450;SDS011;4262;50.980;13.892;2023-02-12T10:40:23;53.60;;;28.47;;
8450;SDS011;4262;50.980;13.892;2023-02-12T10:42:54;60.67;;;29.47;;
8450;SDS011;4262;50.980;13.892;2023-02-12T10:45:25;52.93;;;27.30;;
8450;SDS011;4262;50.980;13.892;2023-02-12T10:48:02;58.30;;;25.70;;
8450;SDS011;4262;50.980;13.892;2023-02-12T10:50:35;46.93;;;23.53;;
8450;SDS011;4262;50.980;13.892;2023-02-12T10:53:17;47.47;;;23.63;;
8450;SDS011;4262;50.980;13.892;2023-02-12T10:55:47;45.07;;;23.97;;
8450;SDS011;4262;50.980;13.892;2023-02-12T10:58:16;38.30;;;20.90;;
8450;SDS011;4262;50.980;13.892;2023-02-12T11:00:47;55.73;;;25.00;;
8450;SDS011;4262;50.980;13.892;2023-02-12T11:03:27;48.17;;;23.50;;
8450;SDS011;4262;50.980;13.892;2023-02-12T11:06:09;47.03;;;24.83;;
8450;SDS011;4262;50.980;13.892;2023-02-12T11:08:40;53.20;;;26.50;;
8450;SDS011;4262;50.980;13.892;2023-02-12T11:11:10;56.10;;;26.47;;
8450;SDS011;4262;50.980;13.892;2023-02-12T11:13:39;43.23;;;23.50;;
8450;SDS011;4262;50.980;13.892;2023-02-12T11:16:11;45.07;;;22.50;;
8450;SDS011;4262;50.980;13.892;2023-02-12T11:18:40;44.50;;;21.90;;
8450;SDS011;4262;50.980;13.892;2023-02-12T11:21:07;43.73;;;21.30;;
8450;SDS011;4262;50.980;13.892;2023-02-12T11:23:37;34.23;;;18.03;;
8450;SDS011;4262;50.980;13.892;2023-02-12T11:26:05;42.73;;;20.83;;
8450;SDS011;4262;50.980;13.892;2023-02-12T11:28:33;32.03;;;11.33;;
8450;SDS011;4262;50.980;13.892;2023-02-12T11:31:03;34.90;;;11.50;;
8450;SDS011;4262;50.980;13.892;2023-02-12T11:33:47;27.33;;;9.87;;
8450;SDS011;4262;50.980;13.892;2023-02-12T11:36:34;28.43;;;10.23;;
8450;SDS011;4262;50.980;13.892;2023-02-12T11:39:04;30.13;;;9.27;;
8450;SDS011;4262;50.980;13.892;2023-02-12T11:41:33;23.33;;;10.10;;
8450;SDS011;4262;50.980;13.892;2023-02-12T11:44:07;27.43;;;9.37;;
8450;SDS011;4262;50.980;13.892;2023-02-12T11:46:37;21.67;;;8.10;;
8450;SDS011;4262;50.980;13.892;2023-02-12T11:49:13;22.63;;;8.90;;
8450;SDS011;4262;50.980;13.892;2023-02-12T11:51:46;30.17;;;8.33;;
8450;SDS011;4262;50.980;13.892;2023-02-12T11:54:17;25.90;;;9.40;;
8450;SDS011;4262;50.980;13.892;2023-02-12T11:56:47;25.83;;;8.03;;
8450;SDS011;4262;50.980;13.892;2023-02-12T11:59:26;21.80;;;8.67;;
8450;SDS011;4262;50.980;13.892;2023-02-12T12:01:58;28.87;;;9.00;;
8450;SDS011;4262;50.980;13.892;2023-02-12T12:04:31;49.30;;;18.80;;
8450;SDS011;4262;50.980;13.892;2023-02-12T12:07:01;26.10;;;11.77;;
8450;SDS011;4262;50.980;13.892;2023-02-12T12:09:38;24.37;;;8.87;;
8450;SDS011;4262;50.980;13.892;2023-02-12T12:12:09;31.43;;;10.43;;
8450;SDS011;4262;50.980;13.892;2023-02-12T12:14:41;30.57;;;11.37;;
8450;SDS011;4262;50.980;13.892;2023-02-12T12:17:33;24.90;;;10.40;;
8450;SDS011;4262;50.980;13.892;2023-02-12T12:20:24;22.73;;;9.43;;
8450;SDS011;4262;50.980;13.892;2023-02-12T12:22:56;24.30;;;9.70;;
8450;SDS011;4262;50.980;13.892;2023-02-12T12:25:29;22.30;;;9.67;;
8450;SDS011;4262;50.980;13.892;2023-02-12T12:28:04;22.77;;;9.43;;
8450;SDS011;4262;50.980;13.892;2023-02-12T12:30:46;24.10;;;9.97;;
8450;SDS011;4262;50.980;13.892;2023-02-12T12:33:19;24.50;;;8.70;;
8450;SDS011;4262;50.980;13.892;2023-02-12T12:35:57;21.07;;;9.50;;
8450;SDS011;4262;50.980;13.892;2023-02-12T12:38:34;26.50;;;10.30;;
8450;SDS011;4262;50.980;13.892;2023-02-12T12:41:15;29.10;;;10.20;;
8450;SDS011;4262;50.980;13.892;2023-02-12T12:43:55;36.93;;;10.13;;
8450;SDS011;4262;50.980;13.892;2023-02-12T12:46:33;26.97;;;8.87;;
8450;SDS011;4262;50.980;13.892;2023-02-12T12:49:20;26.20;;;8.90;;
8450;SDS011;4262;50.980;13.892;2023-02-12T12:52:02;28.50;;;10.30;;
8450;SDS011;4262;50.980;13.892;2023-02-12T12:54:42;27.47;;;9.00;;
8450;SDS011;4262;50.980;13.892;2023-02-12T12:57:25;20.37;;;9.27;;
8450;SDS011;4262;50.980;13.892;2023-02-12T13:00:07;28.33;;;9.40;;
8450;SDS011;4262;50.980;13.892;2023-02-12T13:06:05;27.87;;;9.70;;
8450;SDS011;4262;50.980;13.892;2023-02-12T13:08:48;29.40;;;10.90;;
8450;SDS011;4262;50.980;13.892;2023-02-12T13:11:33;21.23;;;9.17;;
8450;SDS011;4262;50.980;13.892;2023-02-12T13:14:11;26.77;;;11.30;;
8450;SDS011;4262;50.980;13.892;2023-02-12T13:16:50;27.50;;;10.27;;
8450;SDS011;4262;50.980;13.892;2023-02-12T13:19:23;20.43;;;9.20;;
8450;SDS011;4262;50.980;13.892;2023-02-12T13:21:58;28.20;;;9.80;;
8450;SDS011;4262;50.980;13.892;2023-02-12T13:24:34;24.60;;;10.03;;
8450;SDS011;4262;50.980;13.892;2023-02-12T13:27:11;24.20;;;9.17;;
8450;SDS011;4262;50.980;13.892;2023-02-12T13:29:41;31.53;;;10.47;;
8450;SDS011;4262;50.980;13.892;2023-02-12T13:32:14;24.27;;;9.90;;
8450;SDS011;4262;50.980;13.892;2023-02-12T13:34:45;29.90;;;9.67;;
8450;SDS011;4262;50.980;13.892;2023-02-12T13:37:14;33.17;;;8.50;;
8450;SDS011;4262;50.980;13.892;2023-02-12T13:39:44;24.80;;;7.70;;
8450;SDS011;4262;50.980;13.892;2023-02-12T13:42:17;29.47;;;9.23;;
8450;SDS011;4262;50.980;13.892;2023-02-12T13:44:58;28.70;;;8.27;;
8450;SDS011;4262;50.980;13.892;2023-02-12T13:47:33;44.27;;;8.60;;
8450;SDS011;4262;50.980;13.892;2023-02-12T13:50:16;21.83;;;7.40;;
8450;SDS011;4262;50.980;13.892;2023-02-12T13:52:57;22.10;;;8.47;;
8450;SDS011;4262;50.980;13.892;2023-02-12T13:55:30;30.93;;;8.90;;
8450;SDS011;4262;50.980;13.892;2023-02-12T14:01:05;20.40;;;7.50;;
8450;SDS011;4262;50.980;13.892;2023-02-12T14:03:33;20.37;;;7.00;;
8450;SDS011;4262;50.980;13.892;2023-02-12T14:06:08;25.47;;;7.70;;
8450;SDS011;4262;50.980;13.892;2023-02-12T14:08:37;25.10;;;8.30;;
8450;SDS011;4262;50.980;13.892;2023-02-12T14:11:08;29.47;;;8.33;;
8450;SDS011;4262;50.980;13.892;2023-02-12T14:13:44;18.63;;;7.60;;
8450;SDS011;4262;50.980;13.892;2023-02-12T14:22:02;27.00;;;7.30;;
8450;SDS011;4262;50.980;13.892;2023-02-12T14:24:45;22.87;;;7.00;;
8450;SDS011;4262;50.980;13.892;2023-02-12T14:27:35;16.70;;;6.70;;
8450;SDS011;4262;50.980;13.892;2023-02-12T14:32:57;27.23;;;8.77;;
8450;SDS011;4262;50.980;13.892;2023-02-12T14:35:45;19.53;;;8.13;;
8450;SDS011;4262;50.980;13.892;2023-02-12T14:41:33;19.13;;;6.13;;
8450;SDS011;4262;50.980;13.892;2023-02-12T14:50:19;22.03;;;7.57;;
8450;SDS011;4262;50.980;13.892;2023-02-12T14:52:51;15.67;;;7.40;;
8450;SDS011;4262;50.980;13.892;2023-02-12T14:55:25;18.80;;;8.00;;
8450;SDS011;4262;50.980;13.892;2023-02-12T14:57:59;24.80;;;8.50;;
8450;SDS011;4262;50.980;13.892;2023-02-12T15:00:31;19.07;;;8.60;;
8450;SDS011;4262;50.980;13.892;2023-02-12T15:03:04;20.83;;;8.50;;
8450;SDS011;4262;50.980;13.892;2023-02-12T15:05:41;22.93;;;9.57;;
8450;SDS011;4262;50.980;13.892;2023-02-12T15:08:14;21.83;;;9.87;;
8450;SDS011;4262;50.980;13.892;2023-02-12T15:10:51;19.33;;;7.27;;
8450;SDS011;4262;50.980;13.892;2023-02-12T15:13:23;21.93;;;7.70;;
8450;SDS011;4262;50.980;13.892;2023-02-12T15:15:55;20.17;;;7.77;;
8450;SDS011;4262;50.980;13.892;2023-02-12T15:18:28;24.13;;;9.53;;
8450;SDS011;4262;50.980;13.892;2023-02-12T15:21:05;21.43;;;8.20;;
8450;SDS011;4262;50.980;13.892;2023-02-12T15:23:40;20.80;;;7.90;;
8450;SDS011;4262;50.980;13.892;2023-02-12T15:26:11;20.00;;;8.27;;
8450;SDS011;4262;50.980;13.892;2023-02-12T15:28:40;22.30;;;9.30;;
8450;SDS011;4262;50.980;13.892;2023-02-12T15:31:13;21.80;;;10.30;;
8450;SDS011;4262;50.980;13.892;2023-02-12T15:33:44;24.73;;;10.03;;
8450;SDS011;4262;50.980;13.892;2023-02-12T15:36:15;18.03;;;8.30;;
8450;SDS011;4262;50.980;13.892;2023-02-12T15:38:47;19.93;;;8.97;;
8450;SDS011;4262;50.980;13.892;2023-02-12T15:41:25;22.30;;;8.60;;
8450;SDS011;4262;50.980;13.892;2023-02-12T15:43:54;27.83;;;9.27;;
8450;SDS011;4262;50.980;13.892;2023-02-12T15:46:22;24.60;;;9.10;;
8450;SDS011;4262;50.980;13.892;2023-02-12T15:48:49;24.40;;;9.30;;
8450;SDS011;4262;50.980;13.892;2023-02-12T15:51:19;28.73;;;10.77;;
8450;SDS011;4262;50.980;13.892;2023-02-12T15:53:51;29.33;;;9.40;;
8450;SDS011;4262;50.980;13.892;2023-02-12T15:56:19;22.63;;;9.30;;
8450;SDS011;4262;50.980;13.892;2023-02-12T15:58:50;31.50;;;12.87;;
8450;SDS011;4262;50.980;13.892;2023-02-12T16:01:19;27.63;;;11.33;;
8450;SDS011;4262;50.980;13.892;2023-02-12T16:03:49;25.90;;;9.77;;
8450;SDS011;4262;50.980;13.892;2023-02-12T16:06:19;27.10;;;10.57;;
8450;SDS011;4262;50.980;13.892;2023-02-12T16:08:49;29.03;;;12.30;;
8450;SDS011;4262;50.980;13.892;2023-02-12T16:11:22;25.70;;;10.00;;
8450;SDS011;4262;50.980;13.892;2023-02-12T16:13:51;24.23;;;9.10;;
8450;SDS011;4262;50.980;13.892;2023-02-12T16:16:22;28.57;;;9.77;;
8450;SDS011;4262;50.980;13.892;2023-02-12T16:19:13;22.07;;;9.17;;
8450;SDS011;4262;50.980;13.892;2023-02-12T16:21:43;22.37;;;9.57;;
8450;SDS011;4262;50.980;13.892;2023-02-12T16:24:24;22.17;;;9.37;;
8450;SDS011;4262;50.980;13.892;2023-02-12T16:26:54;22.00;;;8.93;;
8450;SDS011;4262;50.980;13.892;2023-02-12T16:29:22;24.43;;;9.73;;
8450;SDS011;4262;50.980;13.892;2023-02-12T16:31:57;22.77;;;10.03;;
8450;SDS011;4262;50.980;13.892;2023-02-12T16:34:27;30.83;;;12.23;;
8450;SDS011;4262;50.980;13.892;2023-02-12T16:36:56;26.20;;;11.87;;
8450;SDS011;4262;50.980;13.892;2023-02-12T16:42:24;30.13;;;11.00;;
8450;SDS011;4262;50.980;13.892;2023-02-12T16:44:53;25.90;;;14.10;;
8450;SDS011;4262;50.980;13.892;2023-02-12T16:47:21;27.10;;;14.43;;
8450;SDS011;4262;50.980;13.892;2023-02-12T16:49:53;24.10;;;12.27;;
8450;SDS011;4262;50.980;13.892;2023-02-12T16:55:10;31.00;;;15.03;;
8450;SDS011;4262;50.980;13.892;2023-02-12T16:57:39;30.23;;;15.47;;
8450;SDS011;4262;50.980;13.892;2023-02-12T17:00:06;27.30;;;13.17;;
8450;SDS011;4262;50.980;13.892;2023-02-12T17:02:33;35.10;;;14.17;;
8450;SDS011;4262;50.980;13.892;2023-02-12T17:05:03;27.00;;;13.47;;
8450;SDS011;4262;50.980;13.892;2023-02-12T17:07:32;27.63;;;14.70;;
8450;SDS011;4262;50.980;13.892;2023-02-12T17:09:59;24.73;;;11.23;;
8450;SDS011;4262;50.980;13.892;2023-02-12T17:12:27;25.90;;;12.03;;
8450;SDS011;4262;50.980;13.892;2023-02-12T17:14:54;22.10;;;11.87;;
8450;SDS011;4262;50.980;13.892;2023-02-12T17:17:21;23.23;;;13.27;;
8450;SDS011;4262;50.980;13.892;2023-02-12T17:19:49;32.03;;;13.87;;
8450;SDS011;4262;50.980;13.892;2023-02-12T17:22:21;32.33;;;15.50;;
8450;SDS011;4262;50.980;13.892;2023-02-12T17:24:51;26.80;;;13.13;;
8450;SDS011;4262;50.980;13.892;2023-02-12T17:27:19;27.23;;;13.50;;
8450;SDS011;4262;50.980;13.892;2023-02-12T17:29:47;27.33;;;14.90;;
8450;SDS011;4262;50.980;13.892;2023-02-12T17:32:14;25.40;;;14.40;;
8450;SDS011;4262;50.980;13.892;2023-02-12T17:34:40;31.00;;;15.37;;
8450;SDS011;4262;50.980;13.892;2023-02-12T17:37:08;34.93;;;18.13;;
8450;SDS011;4262;50.980;13.892;2023-02-12T17:39:38;24.07;;;14.20;;
8450;SDS011;4262;50.980;13.892;2023-02-12T17:42:06;33.63;;;15.20;;
8450;SDS011;4262;50.980;13.892;2023-02-12T17:44:33;35.70;;;17.27;;
8450;SDS011;4262;50.980;13.892;2023-02-12T17:47:00;29.90;;;15.40;;
8450;SDS011;4262;50.980;13.892;2023-02-12T17:49:26;30.87;;;15.50;;
8450;SDS011;4262;50.980;13.892;2023-02-12T17:51:53;37.17;;;16.77;;
8450;SDS011;4262;50.980;13.892;2023-02-12T17:54:20;33.27;;;17.33;;
8450;SDS011;4262;50.980;13.892;2023-02-12T17:56:48;33.07;;;18.10;;
8450;SDS011;4262;50.980;13.892;2023-02-12T17:59:14;38.90;;;18.97;;
8450;SDS011;4262;50.980;13.892;2023-02-12T18:01:42;35.47;;;20.20;;
8450;SDS011;4262;50.980;13.892;2023-02-12T18:04:10;38.40;;;23.47;;
8450;SDS011;4262;50.980;13.892;2023-02-12T18:06:36;40.90;;;22.90;;
8450;SDS011;4262;50.980;13.892;2023-02-12T18:09:05;39.73;;;21.77;;
8450;SDS011;4262;50.980;13.892;2023-02-12T18:11:33;34.80;;;18.63;;
8450;SDS011;4262;50.980;13.892;2023-02-12T18:14:01;28.80;;;16.93;;
8450;SDS011;4262;50.980;13.892;2023-02-12T18:16:29;33.00;;;18.37;;
8450;SDS011;4262;50.980;13.892;2023-02-12T18:18:59;41.10;;;21.17;;
8450;SDS011;4262;50.980;13.892;2023-02-12T18:21:28;36.50;;;19.37;;
8450;SDS011;4262;50.980;13.892;2023-02-12T18:23:55;38.73;;;20.83;;
8450;SDS011;4262;50.980;13.892;2023-02-12T18:26:23;36.73;;;19.87;;
8450;SDS011;4262;50.980;13.892;2023-02-12T18:28:52;42.87;;;20.63;;
8450;SDS011;4262;50.980;13.892;2023-02-12T18:31:20;39.07;;;20.77;;
8450;SDS011;4262;50.980;13.892;2023-02-12T18:33:47;39.93;;;20.50;;
8450;SDS011;4262;50.980;13.892;2023-02-12T18:36:15;39.77;;;20.93;;
8450;SDS011;4262;50.980;13.892;2023-02-12T18:38:44;35.63;;;19.63;;
8450;SDS011;4262;50.980;13.892;2023-02-12T18:41:14;32.77;;;19.17;;
8450;SDS011;4262;50.980;13.892;2023-02-12T18:43:42;29.43;;;16.70;;
8450;SDS011;4262;50.980;13.892;2023-02-12T18:46:09;28.47;;;16.57;;
8450;SDS011;4262;50.980;13.892;2023-02-12T18:48:38;25.20;;;14.80;;
8450;SDS011;4262;50.980;13.892;2023-02-12T18:51:06;19.83;;;13.20;;
8450;SDS011;4262;50.980;13.892;2023-02-12T18:53:33;17.60;;;10.20;;
8450;SDS011;4262;50.980;13.892;2023-02-12T18:56:02;20.17;;;11.77;;
8450;SDS011;4262;50.980;13.892;2023-02-12T18:58:29;19.93;;;10.90;;
8450;SDS011;4262;50.980;13.892;2023-02-12T19:00:56;16.67;;;10.07;;
8450;SDS011;4262;50.980;13.892;2023-02-12T19:03:22;23.63;;;10.23;;
8450;SDS011;4262;50.980;13.892;2023-02-12T19:05:51;19.83;;;11.47;;
8450;SDS011;4262;50.980;13.892;2023-02-12T19:08:18;20.77;;;13.40;;
8450;SDS011;4262;50.980;13.892;2023-02-12T19:10:46;308.87;;;29.53;;
8450;SDS011;4262;50.980;13.892;2023-02-12T19:13:13;38.93;;;22.13;;
8450;SDS011;4262;50.980;13.892;2023-02-12T19:15:40;124.63;;;23.73;;
8450;SDS011;4262;50.980;13.892;2023-02-12T19:18:07;52.60;;;22.27;;
8450;SDS011;4262;50.980;13.892;2023-02-12T19:20:38;27.00;;;16.00;;
8450;SDS011;4262;50.980;13.892;2023-02-12T19:23:06;29.57;;;15.17;;
8450;SDS011;4262;50.980;13.892;2023-02-12T19:25:34;26.37;;;15.43;;
8450;SDS011;4262;50.980;13.892;2023-02-12T19:28:05;27.40;;;15.33;;
8450;SDS011;4262;50.980;13.892;2023-02-12T19:30:32;33.73;;;15.30;;
8450;SDS011;4262;50.980;13.892;2023-02-12T19:32:59;25.20;;;15.07;;
8450;SDS011;4262;50.980;13.892;2023-02-12T19:35:26;25.97;;;13.87;;
8450;SDS011;4262;50.980;13.892;2023-02-12T19:37:53;28.93;;;14.70;;
8450;SDS011;4262;50.980;13.892;2023-02-12T19:40:23;23.33;;;13.87;;
8450;SDS011;4262;50.980;13.892;2023-02-12T19:42:49;26.07;;;16.37;;
8450;SDS011;4262;50.980;13.892;2023-02-12T19:45:16;34.70;;;20.97;;
8450;SDS011;4262;50.980;13.892;2023-02-12T19:47:43;34.67;;;18.80;;
8450;SDS011;4262;50.980;13.892;2023-02-12T19:50:09;30.60;;;17.87;;
8450;SDS011;4262;50.980;13.892;2023-02-12T19:52:36;25.10;;;15.10;;
8450;SDS011;4262;50.980;13.892;2023-02-12T19:55:05;29.10;;;16.47;;
8450;SDS011;4262;50.980;13.892;2023-02-12T19:57:33;26.10;;;14.77;;
8450;SDS011;4262;50.980;13.892;2023-02-12T20:00:04;28.47;;;15.97;;
8450;SDS011;4262;50.980;13.892;2023-02-12T20:02:31;25.30;;;15.57;;
8450;SDS011;4262;50.980;13.892;2023-02-12T20:04:58;40.27;;;20.40;;
8450;SDS011;4262;50.980;13.892;2023-02-12T20:07:25;26.90;;;16.63;;
8450;SDS011;4262;50.980;13.892;2023-02-12T20:09:53;29.37;;;16.87;;
8450;SDS011;4262;50.980;13.892;2023-02-12T20:12:20;29.27;;;17.27;;
8450;SDS011;4262;50.980;13.892;2023-02-12T20:14:48;34.00;;;21.10;;
8450;SDS011;4262;50.980;13.892;2023-02-12T20:17:14;29.70;;;17.60;;
8450;SDS011;4262;50.980;13.892;2023-02-12T20:19:42;36.70;;;19.67;;
8450;SDS011;4262;50.980;13.892;2023-02-12T20:22:10;27.40;;;16.10;;
8450;SDS011;4262;50.980;13.892;2023-02-12T20:24:39;60.23;;;36.90;;
8450;SDS011;4262;50.980;13.892;2023-02-12T20:27:05;35.80;;;20.57;;
8450;SDS011;4262;50.980;13.892;2023-02-12T20:29:34;30.97;;;19.17;;
8450;SDS011;4262;50.980;13.892;2023-02-12T20:32:02;28.07;;;14.80;;
8450;SDS011;4262;50.980;13.892;2023-02-12T20:34:29;34.90;;;17.17;;
8450;SDS011;4262;50.980;13.892;2023-02-12T20:36:55;26.87;;;15.20;;
8450;SDS011;4262;50.980;13.892;2023-02-12T20:39:24;31.10;;;16.73;;
8450;SDS011;4262;50.980;13.892;2023-02-12T20:41:50;28.90;;;15.10;;
8450;SDS011;4262;50.980;13.892;2023-02-12T20:44:18;30.37;;;16.70;;
8450;SDS011;4262;50.980;13.892;2023-02-12T20:46:46;24.90;;;15.47;;
8450;SDS011;4262;50.980;13.892;2023-02-12T20:49:16;29.37;;;19.20;;
8450;SDS011;4262;50.980;13.892;2023-02-12T20:51:44;24.87;;;14.93;;
8450;SDS011;4262;50.980;13.892;2023-02-12T20:54:13;23.70;;;13.77;;
8450;SDS011;4262;50.980;13.892;2023-02-12T20:56:42;36.90;;;19.93;;
8450;SDS011;4262;50.980;13.892;2023-02-12T20:59:09;30.90;;;17.20;;
8450;SDS011;4262;50.980;13.892;2023-02-12T21:01:37;38.13;;;20.93;;
8450;SDS011;4262;50.980;13.892;2023-02-12T21:04:06;41.43;;;18.33;;
8450;SDS011;4262;50.980;13.892;2023-02-12T21:06:35;34.63;;;18.80;;
8450;SDS011;4262;50.980;13.892;2023-02-12T21:09:04;37.47;;;21.17;;
8450;SDS011;4262;50.980;13.892;2023-02-12T21:11:32;35.10;;;20.47;;
8450;SDS011;4262;50.980;13.892;2023-02-12T21:13:58;34.63;;;20.27;;
8450;SDS011;4262;50.980;13.892;2023-02-12T21:16:26;34.23;;;20.40;;
8450;SDS011;4262;50.980;13.892;2023-02-12T21:18:54;34.83;;;20.10;;
8450;SDS011;4262;50.980;13.892;2023-02-12T21:21:22;40.40;;;22.10;;
8450;SDS011;4262;50.980;13.892;2023-02-12T21:23:52;38.20;;;22.60;;
8450;SDS011;4262;50.980;13.892;2023-02-12T21:26:21;36.27;;;20.97;;
8450;SDS011;4262;50.980;13.892;2023-02-12T21:28:49;39.27;;;21.30;;